createdAt,value
2018-11-29T00:00:57.209Z,10.58
2018-11-29T00:03:25.292Z,9.75
2018-11-29T00:05:53.364Z,10.25
2018-11-29T00:08:40.906Z,10.93
2018-11-29T00:11:08.973Z,9.30
2018-11-29T00:13:37.028Z,9.68
2018-11-29T00:16:05.527Z,10.63
2018-11-29T00:18:33.568Z,8.08
2018-11-29T00:21:01.598Z,9.68
2018-11-29T00:23:29.664Z,10.40
2018-11-29T00:25:57.968Z,8.93
2018-11-29T00:28:26.002Z,8.73
2018-11-29T00:30:54.343Z,9.45
2018-11-29T00:33:22.781Z,9.65
2018-11-29T00:35:51.621Z,10.63
2018-11-29T00:38:20.192Z,7.83
2018-11-29T00:40:48.243Z,9.58
2018-11-29T00:43:16.291Z,10.72
2018-11-29T00:45:44.386Z,10.00
2018-11-29T00:48:12.432Z,9.30
2018-11-29T00:50:40.476Z,9.10
2018-11-29T00:53:08.514Z,9.18
2018-11-29T00:55:36.571Z,8.93
2018-11-29T00:58:04.826Z,8.90
2018-11-29T01:00:32.900Z,9.38
2018-11-29T01:03:01.196Z,10.93
2018-11-29T01:05:29.275Z,8.65
2018-11-29T01:07:57.313Z,8.70
2018-11-29T01:10:25.367Z,9.45
2018-11-29T01:12:53.430Z,11.15
2018-11-29T01:15:21.643Z,10.70
2018-11-29T01:17:50.359Z,11.38
2018-11-29T01:20:19.152Z,8.53
2018-11-29T01:22:47.990Z,10.75
2018-11-29T01:25:16.615Z,10.30
2018-11-29T01:27:45.895Z,8.85
2018-11-29T01:30:33.413Z,8.40
2018-11-29T01:33:01.445Z,9.73
2018-11-29T01:35:29.880Z,9.90
2018-11-29T01:37:57.934Z,9.93
2018-11-29T01:40:25.990Z,9.28
2018-11-29T01:42:55.063Z,9.83
2018-11-29T01:45:23.123Z,10.10
2018-11-29T01:47:51.182Z,8.83
2018-11-29T01:50:19.246Z,9.23
2018-11-29T01:52:47.325Z,9.50
2018-11-29T01:55:15.395Z,9.55
2018-11-29T01:57:43.714Z,8.55
2018-11-29T02:00:17.965Z,10.72
2018-11-29T02:02:47.375Z,9.80
2018-11-29T02:05:15.455Z,10.00
2018-11-29T02:07:43.520Z,9.35
2018-11-29T02:10:32.122Z,9.00
2018-11-29T02:13:00.449Z,10.10
2018-11-29T02:15:28.689Z,10.72
2018-11-29T02:17:56.762Z,11.05
2018-11-29T02:20:24.819Z,9.18
2018-11-29T02:22:52.884Z,10.15
2018-11-29T02:25:20.940Z,9.65
2018-11-29T02:27:49.014Z,9.20
2018-11-29T02:30:36.546Z,8.90
2018-11-29T02:33:04.681Z,9.40
2018-11-29T02:35:32.799Z,10.35
2018-11-29T02:38:01.235Z,9.33
2018-11-29T02:40:29.283Z,9.58
2018-11-29T02:42:57.390Z,8.93
2018-11-29T02:45:25.556Z,8.03
2018-11-29T02:47:53.601Z,10.48
2018-11-29T02:50:21.986Z,8.50
2018-11-29T02:52:50.035Z,8.23
2018-11-29T02:55:18.511Z,8.20
2018-11-29T02:57:46.907Z,9.45
2018-11-29T03:00:16.188Z,9.25
2018-11-29T03:02:44.227Z,9.80
2018-11-29T03:05:12.335Z,8.20
2018-11-29T03:07:40.396Z,8.45
2018-11-29T03:10:27.986Z,9.28
2018-11-29T03:12:56.182Z,8.70
2018-11-29T03:15:24.256Z,8.45
2018-11-29T03:17:52.338Z,8.05
2018-11-29T03:20:20.400Z,10.03
2018-11-29T03:22:48.482Z,8.85
2018-11-29T03:25:16.867Z,7.50
2018-11-29T03:27:45.307Z,7.75
2018-11-29T03:30:14.571Z,8.65
2018-11-29T03:32:42.591Z,8.03
2018-11-29T03:35:30.633Z,8.75
2018-11-29T03:37:58.722Z,8.23
2018-11-29T03:40:26.784Z,7.75
2018-11-29T03:42:54.829Z,9.38
2018-11-29T03:45:22.877Z,7.33
2018-11-29T03:47:50.929Z,7.70
2018-11-29T03:50:19.024Z,9.70
2018-11-29T03:52:47.116Z,7.85
2018-11-29T03:55:15.152Z,8.90
2018-11-29T03:57:43.208Z,7.80
2018-11-29T04:00:30.714Z,9.00
2018-11-29T04:02:59.212Z,8.80
2018-11-29T04:05:27.511Z,7.55
2018-11-29T04:07:55.611Z,8.58
2018-11-29T04:10:23.661Z,9.48
2018-11-29T04:12:51.695Z,9.35
2018-11-29T04:15:20.023Z,9.88
2018-11-29T04:17:48.883Z,8.88
2018-11-29T04:20:17.364Z,9.85
2018-11-29T04:22:45.532Z,10.00
2018-11-29T04:25:16.420Z,8.13
2018-11-29T04:27:44.457Z,10.00
2018-11-29T04:30:32.269Z,8.60
2018-11-29T04:33:00.371Z,8.28
2018-11-29T04:35:28.492Z,7.95
2018-11-29T04:37:56.580Z,8.80
2018-11-29T04:40:24.660Z,9.55
2018-11-29T04:42:52.723Z,8.73
2018-11-29T04:45:21.203Z,8.50
2018-11-29T04:47:49.491Z,9.53
2018-11-29T04:50:17.639Z,8.10
2018-11-29T04:52:45.995Z,9.30
2018-11-29T04:55:13.988Z,10.13
2018-11-29T04:57:42.529Z,9.28
2018-11-29T05:00:15.126Z,7.45
2018-11-29T05:02:43.249Z,8.60
2018-11-29T05:05:12.246Z,7.80
2018-11-29T05:07:40.743Z,8.75
2018-11-29T05:10:10.545Z,8.50
2018-11-29T05:12:38.626Z,9.05
2018-11-29T05:15:08.710Z,9.05
2018-11-29T05:17:36.783Z,8.85
2018-11-29T05:20:05.910Z,10.95
2018-11-29T05:22:34.008Z,10.10
2018-11-29T05:25:02.089Z,10.35
2018-11-29T05:27:30.226Z,10.13
2018-11-29T05:29:58.282Z,9.45
2018-11-29T05:32:26.360Z,9.53
2018-11-29T05:34:54.423Z,9.35
2018-11-29T05:37:22.556Z,11.43
2018-11-29T05:39:50.651Z,8.98
2018-11-29T05:42:18.761Z,9.50
2018-11-29T05:44:47.310Z,9.68
2018-11-29T05:47:15.411Z,9.58
2018-11-29T05:49:43.857Z,9.40
2018-11-29T05:52:11.916Z,9.60
2018-11-29T05:54:39.993Z,9.83
2018-11-29T05:57:08.088Z,10.45
2018-11-29T05:59:36.161Z,8.83
2018-11-29T06:02:04.218Z,10.90
2018-11-29T06:04:32.339Z,10.58
2018-11-29T06:07:00.411Z,8.93
2018-11-29T06:09:28.559Z,11.45
2018-11-29T06:11:56.638Z,10.10
2018-11-29T06:14:24.750Z,9.00
2018-11-29T06:16:52.844Z,8.93
2018-11-29T06:19:21.830Z,11.25
2018-11-29T06:21:49.942Z,9.83
2018-11-29T06:24:18.378Z,8.50
2018-11-29T06:26:46.436Z,8.53
2018-11-29T06:29:14.509Z,10.50
2018-11-29T06:31:42.600Z,10.85
2018-11-29T06:34:10.684Z,8.38
2018-11-29T06:36:38.778Z,9.30
2018-11-29T06:39:09.010Z,10.95
2018-11-29T06:41:37.079Z,9.03
2018-11-29T06:44:05.323Z,8.75
2018-11-29T06:46:33.396Z,9.75
2018-11-29T06:49:01.819Z,10.13
2018-11-29T06:51:29.879Z,8.48
2018-11-29T06:53:58.076Z,10.10
2018-11-29T06:56:26.227Z,11.70
2018-11-29T06:58:54.446Z,12.25
2018-11-29T07:01:22.539Z,12.55
2018-11-29T07:03:50.657Z,13.05
2018-11-29T07:06:18.746Z,10.82
2018-11-29T07:08:46.806Z,9.55
2018-11-29T07:11:14.910Z,10.65
2018-11-29T07:13:42.990Z,10.58
2018-11-29T07:16:11.075Z,9.73
2018-11-29T07:18:39.148Z,9.65
2018-11-29T07:21:46.064Z,7.30
2018-11-29T07:24:14.180Z,10.10
2018-11-29T07:26:42.278Z,9.83
2018-11-29T07:29:10.362Z,10.10
2018-11-29T07:31:38.457Z,9.53
2018-11-29T07:34:06.597Z,11.57
2018-11-29T07:36:35.128Z,10.58
2018-11-29T07:39:03.230Z,11.18
2018-11-29T07:41:31.670Z,12.15
2018-11-29T07:43:59.748Z,11.08
2018-11-29T07:46:27.818Z,11.18
2018-11-29T07:48:55.901Z,10.78
2018-11-29T07:51:23.987Z,10.75
2018-11-29T07:53:52.041Z,9.18
2018-11-29T07:56:20.115Z,10.60
2018-11-29T07:58:51.584Z,9.98
2018-11-29T08:01:17.203Z,11.05
2018-11-29T08:03:45.725Z,10.63
2018-11-29T08:06:13.838Z,10.68
2018-11-29T08:08:41.928Z,9.53
2018-11-29T08:11:10.030Z,10.58
2018-11-29T08:13:38.143Z,10.30
2018-11-29T08:16:06.946Z,9.63
2018-11-29T08:18:35.028Z,9.00
2018-11-29T08:21:03.147Z,9.83
2018-11-29T08:23:31.248Z,9.58
2018-11-29T08:25:59.352Z,10.20
2018-11-29T08:28:27.420Z,10.80
2018-11-29T08:30:55.526Z,9.60
2018-11-29T08:33:24.014Z,9.60
2018-11-29T08:35:52.114Z,9.75
2018-11-29T08:38:20.227Z,10.23
2018-11-29T08:40:48.296Z,12.63
2018-11-29T08:43:16.792Z,9.30
2018-11-29T08:45:45.665Z,9.80
2018-11-29T08:48:13.774Z,10.68
2018-11-29T08:50:41.829Z,9.83
2018-11-29T08:53:09.968Z,10.38
2018-11-29T08:55:38.082Z,12.28
2018-11-29T08:58:06.553Z,9.80
2018-11-29T09:00:34.614Z,10.58
2018-11-29T09:03:02.735Z,9.55
2018-11-29T09:05:33.975Z,10.30
2018-11-29T09:07:58.882Z,10.28
2018-11-29T09:10:31.540Z,10.45
2018-11-29T09:12:54.995Z,9.35
2018-11-29T09:15:23.121Z,10.80
2018-11-29T09:17:51.189Z,9.30
2018-11-29T09:20:38.957Z,9.85
2018-11-29T09:23:07.026Z,9.88
2018-11-29T09:25:35.129Z,10.43
2018-11-29T09:28:03.242Z,9.95
2018-11-29T09:30:31.303Z,9.50
2018-11-29T09:32:59.378Z,10.63
2018-11-29T09:35:27.461Z,8.63
2018-11-29T09:37:55.595Z,10.48
2018-11-29T09:40:23.658Z,8.95
2018-11-29T09:42:51.709Z,10.05
2018-11-29T09:45:21.099Z,10.43
2018-11-29T09:48:08.637Z,8.38
2018-11-29T09:50:36.794Z,10.95
2018-11-29T09:53:05.480Z,9.15
2018-11-29T09:55:33.557Z,9.15
2018-11-29T09:58:01.617Z,8.73
2018-11-29T10:00:30.711Z,10.08
2018-11-29T10:03:17.384Z,8.55
2018-11-29T10:05:46.486Z,8.08
2018-11-29T10:08:16.021Z,7.75
2018-11-29T10:10:44.212Z,8.00
2018-11-29T10:13:12.272Z,8.03
2018-11-29T10:15:40.358Z,8.75
2018-11-29T10:18:09.717Z,8.90
2018-11-29T10:20:37.834Z,8.63
2018-11-29T10:23:07.006Z,6.85
2018-11-29T10:25:36.525Z,6.72
2018-11-29T10:28:08.877Z,7.08
2018-11-29T10:30:42.300Z,6.53
2018-11-29T10:33:10.368Z,7.78
2018-11-29T10:35:38.455Z,7.30
2018-11-29T10:38:06.505Z,6.33
2018-11-29T10:40:34.576Z,5.90
2018-11-29T10:43:03.107Z,5.53
2018-11-29T10:45:31.643Z,5.53
2018-11-29T10:47:59.693Z,6.03
2018-11-29T10:50:27.783Z,5.20
2018-11-29T10:52:56.233Z,5.17
2018-11-29T10:55:25.042Z,5.20
2018-11-29T10:57:53.098Z,5.55
2018-11-29T11:00:59.777Z,5.80
2018-11-29T11:03:27.848Z,5.47
2018-11-29T11:05:55.971Z,6.12
2018-11-29T11:08:24.039Z,4.53
2018-11-29T11:10:52.094Z,4.93
2018-11-29T11:13:20.158Z,5.50
2018-11-29T11:15:48.229Z,4.53
2018-11-29T11:18:17.152Z,3.43
2018-11-29T11:20:45.211Z,4.60
2018-11-29T11:23:13.345Z,4.27
2018-11-29T11:25:41.438Z,5.30
2018-11-29T11:28:10.174Z,4.30
2018-11-29T11:30:42.777Z,4.83
2018-11-29T11:33:11.232Z,3.90
2018-11-29T11:35:39.286Z,4.70
2018-11-29T11:38:07.328Z,3.70
2018-11-29T11:40:35.374Z,4.47
2018-11-29T11:43:05.306Z,4.50
2018-11-29T11:45:31.534Z,3.40
2018-11-29T11:48:03.237Z,3.40
2018-11-29T11:50:27.741Z,4.37
2018-11-29T11:52:56.130Z,3.77
2018-11-29T11:55:29.910Z,3.03
2018-11-29T11:57:52.378Z,3.17
2018-11-29T12:00:39.965Z,3.27
2018-11-29T12:03:27.752Z,4.80
2018-11-29T12:05:55.849Z,6.40
2018-11-29T12:08:24.276Z,5.40
2018-11-29T12:10:52.377Z,5.67
2018-11-29T12:13:24.480Z,6.00
2018-11-29T12:15:52.595Z,7.03
2018-11-29T12:18:21.545Z,5.20
2018-11-29T12:20:49.612Z,6.43
2018-11-29T12:23:17.681Z,6.37
2018-11-29T12:25:46.240Z,6.40
2018-11-29T12:28:14.316Z,6.70
2018-11-29T12:31:02.927Z,6.60
2018-11-29T12:33:31.013Z,6.37
2018-11-29T12:35:59.501Z,8.30
2018-11-29T12:38:27.638Z,6.60
2018-11-29T12:40:55.722Z,7.03
2018-11-29T12:43:23.804Z,7.87
2018-11-29T12:45:51.859Z,5.97
2018-11-29T12:48:19.934Z,7.13
2018-11-29T12:50:48.025Z,7.70
2018-11-29T12:53:16.100Z,6.83
2018-11-29T12:55:45.523Z,6.50
2018-11-29T12:58:13.574Z,7.20
2018-11-29T13:00:41.688Z,5.30
2018-11-29T13:03:10.864Z,6.23
2018-11-29T13:05:38.957Z,8.10
2018-11-29T13:08:07.970Z,7.30
2018-11-29T13:10:36.095Z,6.97
2018-11-29T13:13:04.508Z,7.27
2018-11-29T13:15:33.927Z,6.27
2018-11-29T13:18:03.675Z,6.00
2018-11-29T13:20:32.728Z,5.93
2018-11-29T13:22:59.790Z,7.67
2018-11-29T13:25:28.579Z,7.33
2018-11-29T13:27:56.740Z,8.20
2018-11-29T13:30:24.783Z,6.20
2018-11-29T13:33:12.367Z,7.30
2018-11-29T13:35:40.504Z,6.70
2018-11-29T13:38:28.062Z,6.50
2018-11-29T13:40:56.096Z,6.70
2018-11-29T13:43:24.161Z,6.83
2018-11-29T13:45:52.648Z,5.83
2018-11-29T13:48:21.089Z,6.63
2018-11-29T13:50:49.163Z,6.47
2018-11-29T13:53:17.251Z,7.20
2018-11-29T13:55:45.297Z,8.43
2018-11-29T13:58:13.770Z,9.13
2018-11-29T14:00:42.285Z,7.50
2018-11-29T14:03:29.826Z,6.60
2018-11-29T14:05:58.375Z,8.80
2018-11-29T14:08:26.513Z,7.00
2018-11-29T14:10:55.032Z,6.90
2018-11-29T14:13:23.104Z,7.67
2018-11-29T14:15:51.216Z,6.40
2018-11-29T14:18:19.345Z,7.83
2018-11-29T14:20:47.389Z,11.73
2018-11-29T14:23:15.869Z,9.40
2018-11-29T14:25:43.982Z,8.43
2018-11-29T14:28:12.043Z,7.67
2018-11-29T14:30:40.532Z,6.80
2018-11-29T14:33:09.020Z,7.70
2018-11-29T14:35:37.057Z,6.40
2018-11-29T14:38:05.530Z,9.47
2018-11-29T14:40:35.048Z,8.93
2018-11-29T14:43:03.384Z,7.80
2018-11-29T14:45:31.841Z,5.40
2018-11-29T14:47:59.876Z,6.43
2018-11-29T14:50:47.441Z,6.00
2018-11-29T14:53:15.562Z,6.27
2018-11-29T14:55:43.646Z,6.13
2018-11-29T14:58:13.104Z,6.00
2018-11-29T15:00:41.229Z,6.00
2018-11-29T15:03:28.750Z,7.00
2018-11-29T15:05:56.818Z,8.20
2018-11-29T15:08:24.862Z,6.27
2018-11-29T15:10:52.984Z,7.78
2018-11-29T15:13:21.541Z,14.07
2018-11-29T15:15:49.698Z,19.43
2018-11-29T15:18:17.777Z,9.98
2018-11-29T15:20:47.212Z,7.70
2018-11-29T15:23:17.069Z,7.60
2018-11-29T15:25:45.198Z,7.28
2018-11-29T15:28:13.744Z,6.45
2018-11-29T15:30:41.683Z,7.25
2018-11-29T15:33:09.767Z,7.58
2018-11-29T15:35:37.834Z,7.22
2018-11-29T15:38:06.174Z,7.17
2018-11-29T15:40:34.772Z,7.75
2018-11-29T15:43:02.892Z,11.53
2018-11-29T15:45:31.448Z,8.90
2018-11-29T15:47:59.588Z,8.88
2018-11-29T15:50:28.100Z,6.80
2018-11-29T15:52:56.923Z,6.28
2018-11-29T15:55:25.449Z,5.80
2018-11-29T15:57:54.282Z,6.33
2018-11-29T16:00:41.831Z,6.13
2018-11-29T16:03:10.076Z,7.15
2018-11-29T16:05:41.150Z,10.85
2018-11-29T16:08:06.831Z,8.48
2018-11-29T16:10:34.915Z,9.70
2018-11-29T16:13:02.997Z,10.25
2018-11-29T16:15:31.081Z,11.20
2018-11-29T16:17:59.164Z,10.65
2018-11-29T16:20:46.708Z,11.17
2018-11-29T16:23:14.793Z,9.77
2018-11-29T16:25:43.268Z,13.03
2018-11-29T16:28:11.461Z,14.18
2018-11-29T16:30:59.035Z,10.47
2018-11-29T16:33:31.689Z,9.38
2018-11-29T16:35:59.799Z,8.37
2018-11-29T16:38:27.828Z,7.90
2018-11-29T16:40:56.279Z,8.10
2018-11-29T16:43:24.544Z,6.47
2018-11-29T16:45:52.640Z,7.17
2018-11-29T16:48:20.720Z,7.20
2018-11-29T16:50:48.886Z,7.53
2018-11-29T16:53:16.963Z,9.07
2018-11-29T16:55:45.078Z,8.75
2018-11-29T16:58:15.041Z,7.78
2018-11-29T17:00:43.102Z,6.92
2018-11-29T17:03:11.210Z,7.47
2018-11-29T17:05:39.283Z,7.33
2018-11-29T17:08:07.501Z,7.45
2018-11-29T17:10:35.876Z,6.87
2018-11-29T17:13:24.967Z,5.70
2018-11-29T17:15:52.980Z,10.75
2018-11-29T17:18:21.119Z,6.65
2018-11-29T17:20:49.207Z,6.85
2018-11-29T17:23:17.293Z,6.42
2018-11-29T17:25:45.385Z,5.47
2018-11-29T17:28:13.472Z,6.17
2018-11-29T17:30:42.067Z,6.40
2018-11-29T17:33:10.179Z,6.45
2018-11-29T17:35:38.305Z,9.10
2018-11-29T17:38:06.527Z,6.30
2018-11-29T17:40:35.240Z,6.30
2018-11-29T17:43:03.317Z,5.87
2018-11-29T17:45:32.088Z,4.80
2018-11-29T17:48:01.968Z,3.62
2018-11-29T17:50:40.434Z,5.53
2018-11-29T17:53:08.879Z,5.87
2018-11-29T17:55:37.043Z,4.50
2018-11-29T17:58:07.990Z,4.45
2018-11-29T18:00:36.428Z,5.55
2018-11-29T18:03:04.602Z,5.50
2018-11-29T18:05:32.693Z,5.12
2018-11-29T18:08:01.172Z,6.33
2018-11-29T18:10:31.310Z,3.98
2018-11-29T18:13:04.743Z,6.50
2018-11-29T18:15:34.311Z,6.05
2018-11-29T18:18:02.385Z,5.15
2018-11-29T18:20:30.455Z,6.00
2018-11-29T18:22:58.564Z,5.08
2018-11-29T18:25:26.698Z,5.58
2018-11-29T18:27:54.710Z,6.28
2018-11-29T18:30:23.606Z,5.40
2018-11-29T18:32:51.672Z,5.62
2018-11-29T18:35:20.167Z,6.08
2018-11-29T18:37:48.270Z,5.83
2018-11-29T18:40:25.522Z,6.22
2018-11-29T18:43:13.902Z,6.47
2018-11-29T18:45:41.974Z,5.42
2018-11-29T18:48:10.752Z,5.67
2018-11-29T18:50:39.372Z,6.50
2018-11-29T18:53:07.469Z,5.72
2018-11-29T18:55:35.558Z,6.33
2018-11-29T18:58:04.270Z,6.67
2018-11-29T19:00:51.802Z,6.35
2018-11-29T19:03:19.920Z,6.90
2018-11-29T19:05:48.019Z,5.62
2018-11-29T19:08:16.102Z,6.58
2018-11-29T19:10:44.146Z,6.62
2018-11-29T19:13:13.339Z,7.60
2018-11-29T19:15:41.455Z,5.97
2018-11-29T19:18:10.918Z,6.37
2018-11-29T19:20:38.639Z,5.97
2018-11-29T19:23:06.836Z,7.08
2018-11-29T19:25:34.948Z,6.70
2018-11-29T19:28:03.026Z,6.50
2018-11-29T19:30:31.786Z,6.87
2018-11-29T19:33:19.952Z,6.22
2018-11-29T19:35:50.782Z,6.17
2018-11-29T19:38:17.430Z,6.78
2018-11-29T19:40:45.553Z,6.75
2018-11-29T19:43:13.667Z,6.45
2018-11-29T19:45:41.748Z,6.78
2018-11-29T19:48:10.494Z,7.05
2018-11-29T19:50:39.039Z,6.92
2018-11-29T19:53:26.738Z,6.85
2018-11-29T19:55:59.343Z,7.58
2018-11-29T19:58:27.959Z,6.05
2018-11-29T20:00:56.028Z,6.60
2018-11-29T20:03:24.175Z,7.47
2018-11-29T20:05:52.656Z,6.35
2018-11-29T20:08:20.828Z,7.90
2018-11-29T20:10:48.922Z,8.13
2018-11-29T20:13:17.058Z,7.35
2018-11-29T20:15:50.225Z,7.65
2018-11-29T20:18:18.374Z,7.47
2018-11-29T20:20:46.448Z,7.45
2018-11-29T20:23:14.556Z,7.60
2018-11-29T20:25:44.282Z,7.33
2018-11-29T20:28:12.357Z,6.58
2018-11-29T20:30:40.437Z,8.03
2018-11-29T20:33:08.536Z,8.33
2018-11-29T20:35:36.591Z,7.85
2018-11-29T20:38:05.394Z,7.70
2018-11-29T20:40:53.793Z,8.03
2018-11-29T20:43:22.503Z,7.65
2018-11-29T20:46:09.924Z,8.08
2018-11-29T20:48:38.007Z,7.65
2018-11-29T20:51:06.125Z,7.58
2018-11-29T20:53:38.713Z,8.15
2018-11-29T20:56:26.343Z,8.93
2018-11-29T20:58:54.425Z,8.88
2018-11-29T21:01:22.911Z,7.70
